Time;durP1;ratioP1;P1;durP2;ratioP2;P2;SDS_P1;SDS_P2;PMS_P1;PMS_P2;Temp;Humidity;BMP_temperature;BMP_pressure;BME280_temperature;BME280_humidity;BME280_pressure;Samples;Min_cycle;Max_cycle;Signal;HPM_P1;HPM_P2
2021/12/21 00:01:58;;;;;;;26.27;6.73;;;0.30;97.30;;;;;;5001481;28;20238;-85
2021/12/21 00:04:23;;;;;;;16.60;6.93;;;0.30;97.30;;;;;;4981399;28;20186;-86
2021/12/21 00:06:49;;;;;;;14.07;6.70;;;0.40;97.30;;;;;;4980960;28;20180;-85
2021/12/21 00:09:15;;;;;;;19.87;8.17;;;0.40;97.30;;;;;;4981334;28;20231;-85
2021/12/21 00:11:40;;;;;;;18.03;6.50;;;0.40;97.30;;;;;;4982692;28;20204;-84
2021/12/21 00:19:27;;;;;;;15.20;7.80;;;0.40;97.30;;;;;;4997622;28;20405;-87
2021/12/21 00:21:59;;;;;;;17.97;7.10;;;0.40;97.30;;;;;;4980222;28;20692;-86
2021/12/21 00:24:31;;;;;;;21.87;7.00;;;0.50;97.30;;;;;;4980365;28;20440;-87
2021/12/21 00:26:56;;;;;;;23.63;8.20;;;0.50;97.30;;;;;;4997767;28;20459;-86
2021/12/21 00:29:23;;;;;;;18.43;7.00;;;0.50;97.30;;;;;;4979928;28;20476;-85
2021/12/21 00:31:49;;;;;;;16.03;7.17;;;0.50;97.30;;;;;;4980169;28;20202;-86
2021/12/21 00:34:15;;;;;;;19.17;6.87;;;0.40;97.30;;;;;;4981357;28;20436;-86
2021/12/21 00:36:41;;;;;;;13.03;6.40;;;0.40;97.30;;;;;;4979601;28;20618;-84
2021/12/21 00:39:08;;;;;;;17.43;6.20;;;0.40;97.30;;;;;;4979932;28;20456;-86
2021/12/21 00:41:34;;;;;;;21.57;7.77;;;0.50;97.30;;;;;;4965097;28;20207;-86
2021/12/21 00:44:00;;;;;;;17.13;7.00;;;0.50;97.30;;;;;;4976032;28;20445;-83
2021/12/21 00:46:25;;;;;;;18.47;8.57;;;0.50;97.30;;;;;;4961400;28;20425;-84
2021/12/21 00:48:54;;;;;;;19.60;7.87;;;0.50;97.30;;;;;;4968356;28;20193;-85
2021/12/21 00:51:23;;;;;;;16.47;7.03;;;0.50;97.30;;;;;;4980221;28;20221;-86
2021/12/21 00:53:49;;;;;;;14.77;6.70;;;0.60;97.30;;;;;;4980140;28;20560;-85
2021/12/21 00:56:15;;;;;;;23.40;7.27;;;0.60;97.30;;;;;;4981416;28;20460;-85
2021/12/21 00:58:40;;;;;;;17.70;7.30;;;0.60;97.30;;;;;;4962672;28;20186;-86
2021/12/21 01:01:07;;;;;;;13.70;6.80;;;0.60;97.30;;;;;;4961890;28;20472;-85
2021/12/21 01:03:36;;;;;;;18.57;7.37;;;0.60;97.30;;;;;;4977418;28;20238;-86
2021/12/21 01:06:13;;;;;;;23.63;7.70;;;0.60;97.30;;;;;;4976430;28;20425;-85
2021/12/21 01:11:25;;;;;;;13.50;7.03;;;0.60;97.30;;;;;;4979503;28;20470;-83
2021/12/21 01:16:34;;;;;;;15.70;7.80;;;0.50;97.30;;;;;;4977947;28;20414;-85
2021/12/21 01:19:07;;;;;;;16.50;7.03;;;0.50;97.30;;;;;;4975776;28;20420;-86
2021/12/21 01:21:43;;;;;;;16.93;8.73;;;0.50;97.30;;;;;;4975871;28;20461;-85
2021/12/21 01:24:30;;;;;;;12.33;6.53;;;0.60;97.30;;;;;;4976599;28;20581;-85
2021/12/21 01:27:24;;;;;;;14.67;6.93;;;0.60;97.30;;;;;;4976069;28;21115;-86
2021/12/21 01:33:12;;;;;;;19.27;7.80;;;0.70;97.30;;;;;;4978196;28;20796;-85
2021/12/21 01:35:39;;;;;;;18.17;7.70;;;0.70;97.30;;;;;;4962060;28;20437;-84
2021/12/21 01:38:03;;;;;;;15.13;6.87;;;0.70;97.30;;;;;;4974684;28;20418;-85
2021/12/21 01:40:40;;;;;;;17.40;8.80;;;0.70;97.30;;;;;;4977788;28;20414;-86
2021/12/21 01:51:19;;;;;;;18.87;7.77;;;0.70;97.30;;;;;;4977998;28;20435;-83
2021/12/21 01:53:46;;;;;;;12.93;7.33;;;0.70;97.30;;;;;;4976649;28;20425;-86
2021/12/21 01:56:13;;;;;;;17.83;7.90;;;0.70;97.30;;;;;;4975433;28;20422;-85
2021/12/21 01:58:39;;;;;;;28.07;8.20;;;0.70;97.30;;;;;;4976456;28;20501;-84
2021/12/21 02:01:07;;;;;;;19.80;7.33;;;0.70;97.30;;;;;;4975976;28;20964;-83
2021/12/21 02:03:33;;;;;;;19.63;7.13;;;0.70;97.30;;;;;;4979481;28;20483;-86
2021/12/21 02:05:59;;;;;;;15.20;7.07;;;0.70;97.30;;;;;;4979463;28;20974;-85
2021/12/21 02:08:25;;;;;;;17.77;7.13;;;0.70;97.30;;;;;;4963001;28;20458;-85
2021/12/21 02:10:50;;;;;;;21.63;9.10;;;0.70;97.30;;;;;;4941826;29;20443;-85
2021/12/21 02:13:16;;;;;;;15.63;7.87;;;0.60;97.30;;;;;;4944262;29;20240;-85
2021/12/21 02:15:42;;;;;;;22.73;8.43;;;0.60;97.30;;;;;;4944793;29;20642;-83
2021/12/21 02:21:01;;;;;;;20.07;8.60;;;0.60;97.30;;;;;;4961946;28;20226;-85
2021/12/21 02:23:36;;;;;;;14.60;7.90;;;0.50;97.30;;;;;;4943873;29;20542;-84
2021/12/21 02:26:24;;;;;;;24.33;7.50;;;0.50;97.30;;;;;;4961305;29;20399;-85
2021/12/21 02:31:34;;;;;;;17.93;7.87;;;0.40;97.30;;;;;;4961918;28;20438;-85
2021/12/21 02:34:00;;;;;;;15.10;7.67;;;0.40;97.30;;;;;;4943291;29;20407;-84
2021/12/21 02:36:26;;;;;;;23.90;8.20;;;0.40;97.30;;;;;;4943735;29;20506;-84
2021/12/21 02:38:51;;;;;;;14.23;6.53;;;0.40;97.30;;;;;;4944083;29;20193;-85
2021/12/21 02:41:17;;;;;;;17.40;9.73;;;0.50;97.30;;;;;;4961556;28;20674;-83
2021/12/21 02:43:42;;;;;;;18.47;8.40;;;0.50;97.30;;;;;;4997024;28;20268;-83
2021/12/21 02:46:08;;;;;;;16.10;6.30;;;0.60;97.30;;;;;;4983120;28;20219;-84
2021/12/21 02:48:33;;;;;;;18.63;8.90;;;0.60;97.30;;;;;;4983465;28;20728;-85
2021/12/21 02:51:00;;;;;;;23.17;7.93;;;0.60;97.30;;;;;;4982721;28;20333;-83
2021/12/21 02:53:26;;;;;;;18.57;7.83;;;0.70;97.30;;;;;;4982970;28;20177;-85
2021/12/21 02:55:51;;;;;;;20.40;8.33;;;0.60;97.30;;;;;;4981885;28;20768;-83
2021/12/21 02:58:17;;;;;;;21.33;8.90;;;0.60;97.30;;;;;;5000031;28;20672;-84
2021/12/21 03:00:43;;;;;;;16.93;8.37;;;0.60;97.30;;;;;;4982154;28;20746;-85
2021/12/21 03:03:13;;;;;;;26.23;8.83;;;0.60;97.30;;;;;;4982127;28;20229;-85
2021/12/21 03:05:45;;;;;;;25.60;8.83;;;0.60;97.30;;;;;;4983154;28;20932;-83
2021/12/21 03:08:16;;;;;;;22.23;9.33;;;0.50;97.30;;;;;;4981577;28;20465;-86
2021/12/21 03:10:58;;;;;;;20.43;7.50;;;0.50;97.30;;;;;;4982255;28;20472;-84
2021/12/21 03:16:09;;;;;;;17.13;8.13;;;0.30;97.30;;;;;;4999669;28;20400;-84
2021/12/21 03:18:35;;;;;;;25.40;9.00;;;0.30;97.30;;;;;;4981799;28;20409;-84
2021/12/21 03:21:00;;;;;;;20.40;7.83;;;0.30;97.30;;;;;;4981611;28;20464;-83
2021/12/21 03:23:26;;;;;;;20.23;7.07;;;0.30;97.30;;;;;;4981676;28;20178;-84
2021/12/21 03:25:51;;;;;;;25.03;7.90;;;0.30;97.30;;;;;;4981825;28;20213;-83
2021/12/21 03:28:17;;;;;;;16.57;7.77;;;0.30;97.30;;;;;;4980734;28;20202;-88
2021/12/21 03:30:42;;;;;;;24.53;8.73;;;0.20;97.30;;;;;;4979681;28;20684;-85
2021/12/21 03:33:07;;;;;;;20.07;8.47;;;0.20;97.30;;;;;;4963425;28;20182;-85
2021/12/21 03:35:33;;;;;;;23.47;9.00;;;0.10;97.30;;;;;;4980995;28;20182;-85
2021/12/21 03:37:58;;;;;;;18.13;7.10;;;0.10;97.30;;;;;;4962851;28;20187;-84
2021/12/21 03:40:24;;;;;;;24.83;7.50;;;0.10;97.30;;;;;;4963133;28;20272;-83
2021/12/21 03:42:50;;;;;;;16.43;7.57;;;0.00;97.30;;;;;;4952966;29;20201;-85
2021/12/21 03:45:15;;;;;;;19.20;7.60;;;0.00;97.30;;;;;;4942964;29;20269;-83
2021/12/21 03:47:41;;;;;;;22.93;8.83;;;-0.10;97.30;;;;;;4943660;29;20198;-83
2021/12/21 03:50:13;;;;;;;25.43;8.00;;;-0.10;97.30;;;;;;4960329;29;20250;-82
2021/12/21 03:52:39;;;;;;;18.40;8.43;;;-0.10;97.30;;;;;;4942567;29;20246;-87
2021/12/21 03:55:05;;;;;;;19.60;7.80;;;-0.20;97.30;;;;;;4942926;29;20597;-85
2021/12/21 03:57:30;;;;;;;21.80;8.47;;;-0.20;97.30;;;;;;4942009;29;20612;-85
2021/12/21 03:59:56;;;;;;;20.57;8.20;;;-0.20;97.30;;;;;;4942148;29;20847;-84
2021/12/21 04:02:24;;;;;;;19.10;8.63;;;-0.20;97.30;;;;;;4968658;28;20226;-84
2021/12/21 04:04:52;;;;;;;16.60;7.50;;;-0.20;97.30;;;;;;4988672;28;21126;-85
2021/12/21 04:07:17;;;;;;;19.80;8.90;;;-0.30;97.30;;;;;;4980608;28;20425;-85
2021/12/21 04:09:43;;;;;;;22.40;9.20;;;-0.30;97.30;;;;;;4980648;28;20790;-85
2021/12/21 04:12:09;;;;;;;18.97;8.00;;;-0.30;97.30;;;;;;4998076;28;20219;-85
2021/12/21 04:14:36;;;;;;;16.53;9.60;;;-0.30;97.30;;;;;;4998547;28;21124;-84
2021/12/21 04:17:02;;;;;;;20.77;7.73;;;-0.30;97.30;;;;;;4980632;28;20417;-85
2021/12/21 04:19:28;;;;;;;19.77;7.47;;;-0.30;97.30;;;;;;4980837;28;20486;-85
2021/12/21 04:21:53;;;;;;;18.30;7.37;;;-0.30;97.30;;;;;;4980821;28;20437;-86
2021/12/21 04:24:19;;;;;;;19.13;7.40;;;-0.30;97.30;;;;;;4980364;28;20184;-85
2021/12/21 04:26:44;;;;;;;22.80;8.03;;;-0.30;97.30;;;;;;4997304;28;20193;-84
2021/12/21 04:29:10;;;;;;;19.43;7.60;;;-0.30;97.30;;;;;;4979928;28;20216;-86
2021/12/21 04:31:35;;;;;;;21.67;8.53;;;-0.30;97.30;;;;;;4997406;28;20198;-86
2021/12/21 04:34:01;;;;;;;19.17;8.40;;;-0.40;97.30;;;;;;4979629;28;20189;-85
2021/12/21 04:36:27;;;;;;;18.80;8.00;;;-0.40;97.30;;;;;;4997917;28;20561;-86
2021/12/21 04:38:54;;;;;;;16.20;7.33;;;-0.40;97.30;;;;;;4979756;28;20188;-84
2021/12/21 04:41:26;;;;;;;27.17;8.37;;;-0.50;97.30;;;;;;4979924;28;20532;-86
2021/12/21 04:43:52;;;;;;;24.17;8.43;;;-0.50;97.30;;;;;;4962267;28;20418;-84
2021/12/21 04:46:19;;;;;;;16.50;7.00;;;-0.60;97.30;;;;;;4960604;28;20455;-83
2021/12/21 04:48:44;;;;;;;16.87;7.70;;;-0.60;97.30;;;;;;4960205;28;21035;-82
2021/12/21 04:51:10;;;;;;;22.63;7.13;;;-0.60;97.30;;;;;;4960377;28;20436;-85
2021/12/21 04:53:36;;;;;;;21.73;7.17;;;-0.60;97.30;;;;;;4961214;28;20189;-84
2021/12/21 04:56:02;;;;;;;25.10;8.90;;;-0.70;97.30;;;;;;4963147;28;20165;-89
2021/12/21 04:58:28;;;;;;;19.90;7.40;;;-0.70;97.30;;;;;;4963989;28;20178;-85
2021/12/21 05:00:54;;;;;;;18.30;7.57;;;-0.70;97.30;;;;;;4963284;28;20440;-85
2021/12/21 05:03:20;;;;;;;20.30;7.80;;;-0.70;97.30;;;;;;4959386;29;20474;-85
2021/12/21 05:05:45;;;;;;;22.10;7.40;;;-0.80;97.30;;;;;;4959608;29;20176;-84
2021/12/21 05:08:19;;;;;;;17.10;7.13;;;-0.80;97.30;;;;;;4959465;29;20242;-83
2021/12/21 05:10:51;;;;;;;21.33;8.07;;;-0.80;97.30;;;;;;4964515;28;20201;-84
2021/12/21 05:13:19;;;;;;;22.53;8.03;;;-0.80;97.30;;;;;;4959859;28;20426;-83
2021/12/21 05:15:45;;;;;;;22.97;8.23;;;-0.80;97.30;;;;;;4972950;28;20425;-85
2021/12/21 05:18:12;;;;;;;20.50;7.37;;;-0.80;97.30;;;;;;4961142;28;20434;-84
2021/12/21 05:20:38;;;;;;;22.03;8.10;;;-0.90;97.30;;;;;;4977249;28;20427;-84
2021/12/21 05:23:04;;;;;;;22.43;7.90;;;-1.00;97.30;;;;;;4955510;28;20498;-86
2021/12/21 05:25:29;;;;;;;17.20;7.80;;;-1.00;97.30;;;;;;4963254;28;20457;-84
2021/12/21 05:27:55;;;;;;;18.67;7.70;;;-1.00;97.30;;;;;;4975559;28;20286;-84
2021/12/21 05:30:22;;;;;;;19.03;6.73;;;-1.10;97.30;;;;;;4961097;28;20193;-85
2021/12/21 05:32:51;;;;;;;20.10;8.20;;;-1.10;97.30;;;;;;4968669;28;20568;-85
2021/12/21 05:35:18;;;;;;;22.37;8.00;;;-1.10;97.30;;;;;;4976960;28;20492;-84
2021/12/21 05:37:46;;;;;;;18.50;7.77;;;-1.10;97.30;;;;;;4974200;28;20730;-84
2021/12/21 05:40:14;;;;;;;18.23;7.57;;;-1.10;97.30;;;;;;4962037;28;20428;-84
2021/12/21 05:42:41;;;;;;;17.30;7.37;;;-1.10;97.30;;;;;;4979005;28;20450;-84
2021/12/21 05:45:09;;;;;;;15.47;6.93;;;-1.10;97.30;;;;;;4962158;28;20465;-86
2021/12/21 05:47:35;;;;;;;16.03;7.47;;;-1.10;97.30;;;;;;4963815;28;22381;-85
2021/12/21 05:50:01;;;;;;;17.70;7.40;;;-1.10;97.30;;;;;;4964304;28;20488;-84
2021/12/21 05:52:26;;;;;;;27.93;8.27;;;-1.10;97.30;;;;;;4981334;28;20437;-86
2021/12/21 05:54:52;;;;;;;17.20;8.03;;;-1.10;97.30;;;;;;4965168;28;20459;-84
2021/12/21 05:57:18;;;;;;;23.23;8.00;;;-1.10;97.30;;;;;;4965510;28;20646;-85
2021/12/21 05:59:43;;;;;;;19.40;8.47;;;-1.10;97.30;;;;;;4965171;28;20853;-88
2021/12/21 06:02:12;;;;;;;22.83;7.97;;;-1.10;97.30;;;;;;4968054;28;20477;-85
2021/12/21 06:04:37;;;;;;;18.30;6.97;;;-1.10;97.30;;;;;;4969436;28;20179;-84
2021/12/21 06:07:03;;;;;;;17.70;8.00;;;-1.20;97.30;;;;;;4973108;28;20441;-84
2021/12/21 06:09:30;;;;;;;17.40;7.33;;;-1.20;97.30;;;;;;4961262;28;20698;-83
2021/12/21 06:22:45;;;;;;;29.07;6.97;;;-1.20;97.30;;;;;;4987147;28;21019;-84
2021/12/21 06:25:42;;;;;;;16.00;7.80;;;-1.40;97.30;;;;;;4952871;28;20417;-85
2021/12/21 06:28:14;;;;;;;27.93;9.87;;;-1.40;97.30;;;;;;4982505;28;20457;-82
2021/12/21 06:30:40;;;;;;;28.40;8.40;;;-1.40;97.30;;;;;;4965189;28;20414;-85
2021/12/21 06:33:07;;;;;;;15.90;7.53;;;-1.40;97.30;;;;;;4963939;28;20504;-83
2021/12/21 06:35:34;;;;;;;15.47;7.20;;;-1.40;97.30;;;;;;4979529;28;20430;-85
2021/12/21 06:38:00;;;;;;;19.53;7.43;;;-1.40;97.30;;;;;;4985337;28;20456;-85
2021/12/21 06:40:26;;;;;;;16.00;6.50;;;-1.30;97.30;;;;;;4981059;28;20428;-85
2021/12/21 06:42:54;;;;;;;15.03;6.80;;;-1.30;97.30;;;;;;4967423;28;20457;-84
2021/12/21 06:45:46;;;;;;;17.10;7.13;;;-1.30;97.30;;;;;;4964601;28;20432;-85
2021/12/21 06:53:36;;;;;;;22.57;8.63;;;-1.30;97.30;;;;;;4980939;28;20410;-85
2021/12/21 06:56:02;;;;;;;13.70;7.30;;;-1.40;97.30;;;;;;4963701;28;20414;-85
2021/12/21 06:58:28;;;;;;;15.57;8.00;;;-1.30;97.30;;;;;;4963368;28;20774;-85
2021/12/21 07:00:54;;;;;;;14.03;8.00;;;-1.30;97.30;;;;;;4963444;28;20445;-85
2021/12/21 07:03:20;;;;;;;18.03;8.00;;;-1.30;97.30;;;;;;4980983;28;20229;-85
2021/12/21 07:05:47;;;;;;;16.70;7.43;;;-1.30;97.30;;;;;;4982974;28;20420;-85
2021/12/21 07:08:16;;;;;;;17.13;6.90;;;-1.30;97.30;;;;;;5002218;28;20535;-84
2021/12/21 07:10:51;;;;;;;19.23;6.90;;;-1.30;97.30;;;;;;4983846;28;20410;-85
2021/12/21 07:18:46;;;;;;;13.20;6.03;;;-1.30;97.30;;;;;;5002597;28;20516;-82
2021/12/21 07:21:11;;;;;;;13.27;6.27;;;-1.30;97.30;;;;;;5002978;28;20429;-84
2021/12/21 07:23:37;;;;;;;20.00;6.83;;;-0.90;97.30;;;;;;5002318;28;20284;-85
2021/12/21 07:26:02;;;;;;;17.03;6.97;;;-0.80;97.30;;;;;;4984713;28;20201;-84
2021/12/21 07:28:28;;;;;;;23.07;8.00;;;-0.50;97.30;;;;;;4979138;28;20247;-84
2021/12/21 07:30:54;;;;;;;18.73;7.10;;;-0.50;97.30;;;;;;4965632;28;20204;-85
2021/12/21 07:33:20;;;;;;;15.53;7.20;;;-0.60;97.30;;;;;;4971060;28;20634;-83
2021/12/21 07:35:45;;;;;;;25.60;7.10;;;-0.60;97.30;;;;;;4961333;28;20428;-85
2021/12/21 07:38:11;;;;;;;19.07;7.77;;;-0.70;97.30;;;;;;4996740;28;20174;-84
2021/12/21 07:40:38;;;;;;;16.63;7.17;;;-0.70;97.30;;;;;;4991489;28;20182;-84
2021/12/21 07:43:04;;;;;;;16.07;8.23;;;-0.70;97.30;;;;;;4957161;28;20182;-84
2021/12/21 07:45:29;;;;;;;17.50;7.60;;;-0.80;97.30;;;;;;4973677;28;20426;-84
2021/12/21 07:47:55;;;;;;;14.30;7.53;;;-0.80;97.30;;;;;;4997053;28;20465;-85
2021/12/21 07:50:21;;;;;;;16.27;8.20;;;-0.70;97.30;;;;;;4972788;28;20596;-85
2021/12/21 07:52:47;;;;;;;16.43;7.80;;;-0.70;97.30;;;;;;4981902;28;20201;-85
2021/12/21 07:55:13;;;;;;;15.70;7.70;;;-0.70;97.30;;;;;;4971577;28;20224;-84
2021/12/21 07:57:38;;;;;;;11.60;6.63;;;-0.70;97.30;;;;;;4976575;28;20445;-83
2021/12/21 08:00:06;;;;;;;14.90;6.43;;;-0.60;97.30;;;;;;4964946;28;20185;-85
2021/12/21 08:02:32;;;;;;;21.00;6.90;;;-0.60;97.30;;;;;;4960088;28;20685;-85
2021/12/21 08:04:59;;;;;;;19.60;7.33;;;-0.60;97.30;;;;;;4998203;28;20449;-86
2021/12/21 08:07:31;;;;;;;17.83;7.03;;;-0.60;97.30;;;;;;4980094;28;20427;-85
2021/12/21 08:09:58;;;;;;;21.23;8.23;;;-0.70;97.30;;;;;;4992089;28;20424;-85
2021/12/21 08:12:24;;;;;;;17.20;6.67;;;-0.60;97.30;;;;;;5000969;28;20967;-84
2021/12/21 08:14:51;;;;;;;19.23;7.50;;;-0.60;97.30;;;;;;4983575;28;20467;-84
2021/12/21 08:17:19;;;;;;;16.20;7.07;;;-0.60;97.30;;;;;;4986819;28;20556;-86
2021/12/21 08:19:46;;;;;;;16.13;7.50;;;-0.60;97.30;;;;;;4982031;28;20420;-85
2021/12/21 08:22:12;;;;;;;17.83;6.53;;;-0.60;97.30;;;;;;4986650;28;20535;-85
2021/12/21 08:24:38;;;;;;;17.80;8.27;;;-0.60;97.30;;;;;;4981201;28;20414;-85
2021/12/21 08:27:04;;;;;;;17.43;8.10;;;-0.60;97.30;;;;;;4981281;28;20427;-85
2021/12/21 08:29:31;;;;;;;20.83;8.37;;;-0.60;97.30;;;;;;5004390;28;20448;-85
2021/12/21 08:31:56;;;;;;;20.13;8.10;;;-0.60;97.30;;;;;;4980761;28;20436;-85
2021/12/21 08:34:22;;;;;;;23.43;8.50;;;-0.60;97.30;;;;;;4978243;28;20425;-85
2021/12/21 08:36:49;;;;;;;20.97;8.00;;;-0.50;97.30;;;;;;4980340;28;20738;-85
2021/12/21 08:39:16;;;;;;;18.47;8.17;;;-0.50;97.30;;;;;;4997083;28;20427;-86
2021/12/21 08:41:43;;;;;;;23.30;8.13;;;-0.50;97.30;;;;;;4979635;28;20535;-86
2021/12/21 08:44:11;;;;;;;25.33;9.40;;;-0.50;97.30;;;;;;4986974;28;20408;-85
2021/12/21 08:46:40;;;;;;;21.10;9.10;;;-0.50;97.30;;;;;;4979730;28;20508;-85
2021/12/21 08:49:06;;;;;;;21.23;9.00;;;-0.50;97.30;;;;;;4980096;28;20457;-84
2021/12/21 08:51:32;;;;;;;18.53;8.13;;;-0.50;97.30;;;;;;4978996;28;20447;-85
2021/12/21 08:53:58;;;;;;;20.43;8.40;;;-0.40;97.30;;;;;;4979653;28;20472;-84
2021/12/21 08:56:23;;;;;;;17.40;8.77;;;-0.40;97.30;;;;;;4999256;28;20181;-85
2021/12/21 08:58:49;;;;;;;23.80;7.93;;;-0.40;97.30;;;;;;4992529;28;20653;-84
2021/12/21 09:01:16;;;;;;;21.20;8.47;;;-0.40;97.30;;;;;;5007203;28;20208;-83
2021/12/21 09:03:42;;;;;;;28.23;9.93;;;-0.40;97.30;;;;;;4995676;28;20182;-85
2021/12/21 09:06:08;;;;;;;16.23;7.67;;;-0.30;97.30;;;;;;4977257;28;20947;-85
2021/12/21 09:08:33;;;;;;;18.07;8.33;;;-0.30;97.30;;;;;;4977213;28;20468;-84
2021/12/21 09:11:03;;;;;;;31.07;8.23;;;-0.30;97.30;;;;;;4995382;28;20198;-83
2021/12/21 09:13:29;;;;;;;21.57;9.60;;;-0.30;97.30;;;;;;4996313;28;20177;-84
2021/12/21 09:15:55;;;;;;;24.00;9.23;;;-0.20;97.30;;;;;;4978058;28;20923;-84
2021/12/21 09:18:21;;;;;;;34.43;11.70;;;-0.20;97.30;;;;;;4995334;28;20484;-84
2021/12/21 09:20:47;;;;;;;29.40;12.33;;;-0.20;97.30;;;;;;4970077;28;20256;-84
2021/12/21 09:23:12;;;;;;;31.43;10.80;;;-0.10;97.30;;;;;;4986974;28;20191;-82
2021/12/21 09:25:38;;;;;;;22.20;10.23;;;-0.10;97.30;;;;;;4971010;28;20235;-85
2021/12/21 09:28:04;;;;;;;26.63;11.67;;;0.00;97.30;;;;;;4995699;28;20236;-85
2021/12/21 09:30:29;;;;;;;19.23;9.57;;;0.10;97.30;;;;;;4982382;28;20190;-85
2021/12/21 09:32:56;;;;;;;30.00;12.57;;;0.20;97.30;;;;;;4959460;28;20192;-83
2021/12/21 09:35:22;;;;;;;33.50;11.60;;;0.30;97.30;;;;;;4959231;28;20185;-85
2021/12/21 09:37:48;;;;;;;27.00;10.90;;;0.30;97.30;;;;;;4975451;28;20413;-86
2021/12/21 09:40:18;;;;;;;26.77;10.87;;;0.20;97.30;;;;;;4985129;28;20986;-83
2021/12/21 09:42:44;;;;;;;31.93;10.27;;;0.30;97.30;;;;;;4987639;28;20775;-83
2021/12/21 09:45:09;;;;;;;27.03;10.50;;;0.30;97.30;;;;;;4987674;28;20467;-83
2021/12/21 09:47:35;;;;;;;23.60;11.70;;;0.30;97.30;;;;;;4977824;28;20422;-85
2021/12/21 09:50:02;;;;;;;25.10;9.80;;;0.20;97.30;;;;;;4978509;28;20432;-85
2021/12/21 09:52:29;;;;;;;22.30;10.77;;;0.20;97.30;;;;;;4975829;28;20248;-84
2021/12/21 09:54:56;;;;;;;25.30;11.03;;;0.20;97.30;;;;;;4975994;28;20569;-84
2021/12/21 09:57:22;;;;;;;26.30;10.07;;;0.20;97.30;;;;;;4977668;28;20465;-84
2021/12/21 09:59:50;;;;;;;23.67;10.30;;;0.30;97.30;;;;;;4976337;28;20425;-85
2021/12/21 10:02:19;;;;;;;29.10;11.27;;;0.30;97.30;;;;;;4976312;28;20240;-85
2021/12/21 10:04:49;;;;;;;26.13;10.80;;;0.30;97.30;;;;;;4976182;28;20504;-83
2021/12/21 10:07:15;;;;;;;23.80;10.47;;;0.30;97.30;;;;;;4995299;28;20413;-84
2021/12/21 10:09:43;;;;;;;23.60;8.50;;;0.30;97.30;;;;;;4977425;28;20455;-84
2021/12/21 10:12:13;;;;;;;21.20;8.40;;;0.30;97.30;;;;;;4996081;28;20969;-84
2021/12/21 10:14:40;;;;;;;27.27;10.30;;;0.30;97.30;;;;;;5014397;28;20435;-84
2021/12/21 10:17:08;;;;;;;27.00;11.13;;;0.30;97.30;;;;;;5012524;28;20411;-82
2021/12/21 10:19:35;;;;;;;23.40;9.30;;;0.30;97.30;;;;;;4995612;28;20424;-84
2021/12/21 10:22:15;;;;;;;21.77;9.53;;;0.40;97.30;;;;;;4996282;28;20443;-86
2021/12/21 10:24:51;;;;;;;34.20;10.77;;;0.50;97.30;;;;;;4995712;28;20448;-85
2021/12/21 10:27:19;;;;;;;22.80;9.07;;;0.60;97.30;;;;;;5012255;28;20408;-85
2021/12/21 10:29:47;;;;;;;31.60;10.60;;;0.70;97.30;;;;;;4994216;28;20451;-84
2021/12/21 10:32:25;;;;;;;36.67;10.40;;;0.70;97.30;;;;;;4973019;28;20809;-83
2021/12/21 10:34:55;;;;;;;24.23;9.60;;;0.70;97.30;;;;;;4960100;28;20468;-83
2021/12/21 10:37:25;;;;;;;24.27;10.90;;;0.70;97.30;;;;;;4992851;28;20404;-85
2021/12/21 10:40:02;;;;;;;30.17;11.50;;;0.70;97.30;;;;;;4998913;28;20423;-84
2021/12/21 10:42:28;;;;;;;32.93;10.60;;;0.70;97.30;;;;;;4999528;28;20446;-85
2021/12/21 10:45:05;;;;;;;34.53;10.80;;;0.70;97.30;;;;;;4987221;28;20431;-84
2021/12/21 10:47:33;;;;;;;32.80;11.57;;;0.70;97.30;;;;;;4984755;28;20680;-86
2021/12/21 10:49:59;;;;;;;28.17;11.87;;;0.70;97.30;;;;;;4976326;28;20418;-85
2021/12/21 10:52:24;;;;;;;34.80;12.70;;;0.70;97.30;;;;;;4975976;28;20469;-86
2021/12/21 10:54:50;;;;;;;28.87;12.17;;;0.80;97.30;;;;;;4990620;28;20930;-83
2021/12/21 10:57:23;;;;;;;29.13;13.43;;;0.80;97.30;;;;;;4998747;28;20177;-84
2021/12/21 10:59:53;;;;;;;34.60;12.77;;;0.80;97.30;;;;;;4981544;28;20418;-83
2021/12/21 11:02:25;;;;;;;35.33;12.97;;;0.80;97.30;;;;;;5001729;28;21186;-85
2021/12/21 11:04:56;;;;;;;46.37;16.33;;;0.90;97.30;;;;;;4975663;28;20819;-85
2021/12/21 11:10:00;;;;;;;86.80;29.00;;;0.90;97.30;;;;;;4977889;28;20402;-85
2021/12/21 11:12:27;;;;;;;135.87;40.57;;;0.90;97.30;;;;;;4961391;28;20438;-84
2021/12/21 11:14:55;;;;;;;57.33;19.70;;;0.90;97.30;;;;;;4962246;28;20426;-85
2021/12/21 11:17:23;;;;;;;65.93;22.37;;;1.00;97.30;;;;;;4962070;28;20921;-85
2021/12/21 11:19:52;;;;;;;39.93;14.83;;;1.10;97.30;;;;;;4964970;28;20483;-83
2021/12/21 11:22:20;;;;;;;57.63;21.20;;;1.10;97.30;;;;;;4968757;28;20565;-84
2021/12/21 11:24:48;;;;;;;48.20;23.30;;;1.10;97.30;;;;;;4952337;29;20435;-86
2021/12/21 11:27:15;;;;;;;41.43;13.60;;;1.10;97.30;;;;;;4973356;28;20456;-83
2021/12/21 11:29:41;;;;;;;38.77;14.90;;;1.20;97.30;;;;;;4960344;28;20477;-83
2021/12/21 11:32:07;;;;;;;31.37;12.30;;;1.20;97.30;;;;;;4961002;28;20443;-83
2021/12/21 11:34:36;;;;;;;38.10;12.27;;;1.20;97.30;;;;;;4952202;28;20596;-84
2021/12/21 11:37:20;;;;;;;38.43;14.03;;;1.20;97.30;;;;;;4959130;28;20433;-83
2021/12/21 11:39:47;;;;;;;37.47;12.10;;;1.20;97.30;;;;;;4975782;28;20911;-83
2021/12/21 11:42:41;;;;;;;31.03;11.40;;;1.30;97.30;;;;;;4958429;28;20540;-83
2021/12/21 11:45:21;;;;;;;25.57;10.23;;;1.20;97.30;;;;;;4959513;28;20487;-82
2021/12/21 11:48:09;;;;;;;27.80;11.27;;;1.20;97.30;;;;;;4964119;28;20418;-80
2021/12/21 11:50:35;;;;;;;31.27;12.47;;;1.10;97.30;;;;;;4960912;28;20840;-86
2021/12/21 11:53:04;;;;;;;29.83;11.30;;;1.20;97.30;;;;;;4961969;28;20441;-82
2021/12/21 11:55:32;;;;;;;29.50;11.40;;;1.30;97.30;;;;;;4961277;28;20467;-84
2021/12/21 11:58:00;;;;;;;43.47;14.70;;;1.40;97.30;;;;;;4961552;28;20437;-82
2021/12/21 12:00:34;;;;;;;29.87;10.80;;;1.50;97.30;;;;;;4961688;28;20421;-84
2021/12/21 12:03:15;;;;;;;30.87;11.63;;;1.50;97.30;;;;;;4961206;28;20481;-83
2021/12/21 12:05:49;;;;;;;28.50;10.83;;;1.50;97.30;;;;;;4961264;28;20414;-84
2021/12/21 12:08:15;;;;;;;39.63;10.70;;;1.50;97.30;;;;;;4957964;29;20564;-84
2021/12/21 12:10:56;;;;;;;30.97;10.93;;;1.50;97.30;;;;;;4957426;29;21267;-83
2021/12/21 12:13:32;;;;;;;30.13;11.37;;;1.50;97.30;;;;;;4957746;29;20171;-84
2021/12/21 12:16:05;;;;;;;23.33;10.63;;;1.40;97.30;;;;;;4957411;29;20478;-82
2021/12/21 12:18:50;;;;;;;36.50;12.30;;;1.40;97.30;;;;;;4957096;29;20411;-83
2021/12/21 12:21:22;;;;;;;30.40;11.20;;;1.40;97.30;;;;;;4957027;29;20534;-84
2021/12/21 12:24:01;;;;;;;22.23;9.50;;;1.40;97.30;;;;;;4957509;29;20425;-83
2021/12/21 12:26:28;;;;;;;26.07;10.53;;;1.60;97.30;;;;;;4957577;29;20418;-83
2021/12/21 12:29:16;;;;;;;25.07;11.43;;;1.60;97.30;;;;;;4957591;29;20550;-84
2021/12/21 12:31:47;;;;;;;36.17;12.23;;;1.70;97.30;;;;;;4959022;29;20446;-82
2021/12/21 12:34:23;;;;;;;23.17;10.40;;;1.60;97.30;;;;;;4958120;29;20419;-84
2021/12/21 12:36:52;;;;;;;32.03;11.43;;;1.60;97.30;;;;;;4958049;29;20897;-84
2021/12/21 12:39:33;;;;;;;26.00;10.00;;;1.60;97.30;;;;;;4958271;29;20442;-84
2021/12/21 12:42:10;;;;;;;22.40;8.23;;;1.60;97.30;;;;;;4956811;29;20493;-83
2021/12/21 12:44:38;;;;;;;30.90;10.53;;;1.70;97.30;;;;;;4959151;28;20751;-85
2021/12/21 12:47:10;;;;;;;29.00;9.67;;;1.70;97.30;;;;;;4957319;29;20797;-84
2021/12/21 12:49:40;;;;;;;24.20;10.33;;;1.70;97.30;;;;;;4957422;29;20458;-84
2021/12/21 12:52:16;;;;;;;26.10;9.17;;;1.80;97.30;;;;;;4958599;28;20435;-84
2021/12/21 12:54:54;;;;;;;25.57;10.80;;;1.70;97.30;;;;;;4957632;28;20762;-84
2021/12/21 12:57:37;;;;;;;29.20;9.87;;;1.80;97.30;;;;;;4957589;29;20426;-84
2021/12/21 13:00:13;;;;;;;31.80;9.27;;;1.80;97.30;;;;;;4959124;28;20415;-83
2021/12/21 13:02:56;;;;;;;20.73;8.80;;;1.80;97.30;;;;;;4969469;28;21162;-83
2021/12/21 13:05:34;;;;;;;23.13;10.37;;;1.80;97.30;;;;;;4977228;28;20418;-84
2021/12/21 13:08:11;;;;;;;29.07;9.87;;;1.90;97.30;;;;;;4977132;28;20468;-83
2021/12/21 13:10:39;;;;;;;28.80;10.33;;;2.00;97.30;;;;;;4976613;28;20418;-84
2021/12/21 13:13:05;;;;;;;23.40;8.60;;;2.00;97.30;;;;;;4978038;28;20409;-84
2021/12/21 13:15:33;;;;;;;40.70;11.20;;;2.00;97.30;;;;;;4976922;28;20959;-84
2021/12/21 13:18:01;;;;;;;22.97;9.50;;;1.90;97.30;;;;;;4975486;28;20501;-84
2021/12/21 13:20:27;;;;;;;26.93;9.67;;;1.90;97.30;;;;;;4975568;28;20421;-84
2021/12/21 13:22:52;;;;;;;22.43;9.17;;;1.90;97.30;;;;;;4976625;28;20410;-84
2021/12/21 13:25:18;;;;;;;22.10;9.40;;;1.80;97.30;;;;;;4976436;28;20178;-85
2021/12/21 13:27:43;;;;;;;26.20;9.20;;;1.70;97.30;;;;;;4976061;28;20182;-85
2021/12/21 13:30:09;;;;;;;19.40;8.40;;;1.70;97.30;;;;;;4976038;28;20179;-83
2021/12/21 13:32:35;;;;;;;26.40;9.67;;;1.70;97.30;;;;;;4976149;28;20202;-84
2021/12/21 13:35:02;;;;;;;18.97;9.00;;;1.70;97.30;;;;;;4975496;28;20453;-84
2021/12/21 13:37:29;;;;;;;27.43;9.30;;;1.70;97.30;;;;;;4975161;28;20422;-85
2021/12/21 13:39:57;;;;;;;21.53;9.50;;;1.70;97.30;;;;;;4977970;28;20437;-85
2021/12/21 13:42:27;;;;;;;28.37;10.20;;;1.60;97.30;;;;;;4969087;28;20437;-83